WebCam (dist. 5.5Km Est) Villalvernia  WebCam (dist. 5.5Km Est) Villalvernia


WebCam (dist. 7Km Ovest) Basaluzzo  WebCam (dist. 7Km Ovest) Basaluzzo


WebCam (dist.13Km Ovest) Castelferro  WebCam (dist.13Km Ovest) Castelferro


WebCam (dist. 15Km Sud) Carrosio  WebCam (dist. 15Km Sud) Carrosio


Avvisi EUMETNET-METEOalarm

Non sono previsti fenomeni meteo rilevanti    Non sono presenti avvisi di allerta meteo

NOTIZIE METEO

Report METAR

   
LIMV - Alessandria
Dati ricevuti: 13-12-2018 07:55
Parz. nuvoloso  
Parz. nuvoloso  
   Vento: Variabile Calma
Vento: Variabile Calma
Temperatura e Condizioni Meteo: 1°C
P.to Rugiada: -3°C
Umidità: 75%
Pressione: 1013 hPa
Copertura nuvolosa: Partly Cloudy
Visibilità: 7 km
Dettagli cop. nuvolosa: Parz. nuvoloso ft
LIMV 130655Z /////KT 7000 NSC 01/M03 Q1013 RMK OVC OVC070 MON LIB VAL FOSCHIA VIS MIN 7000
LIMJ - Genova
Dati ricevuti: 13-12-2018 08:20
Molto nuvoloso  
Molto nuvoloso  
   Vento: NE 16.7 km/h
Vento: NE 16.7 km/h
Temperatura e Condizioni Meteo: 6°C
Temperatura Vento: 3°C
P.to Rugiada: -4°C
Umidità: 49%
Pressione: 1015 hPa
Copertura nuvolosa: Mostly Cloudy
Visibilità: oltre 10 km
Dettagli cop. nuvolosa: Molto nuvoloso 6000 ft
LIMJ 130720Z 05009KT 9999 BKN060 06/M04 Q1015
LIML - Milano
Dati ricevuti: 13-12-2018 08:20
Molto nuvoloso  
Molto nuvoloso  
   Vento: Variabile 3.7 km/h
Vento: Variabile 3.7 km/h
Temperatura e Condizioni Meteo: 2°C
P.to Rugiada: -3°C
Umidità: 70%
Pressione: 1016 hPa
Copertura nuvolosa: Mostly Cloudy
Visibilità: oltre 10 km
Dettagli cop. nuvolosa: Poche nuvole 5000 ft,
Molto nuvoloso 9000 ft
LIML 130720Z VRB02KT 9999 FEW050 BKN090 02/M03 Q1016 NOSIG
LIMF - Torino
Dati ricevuti: 13-12-2018 08:20
Molto nuvoloso  
Molto nuvoloso  
   Vento: Variabile 3.7 km/h
Vento: Variabile 3.7 km/h
Temperatura e Condizioni Meteo: 2°C
P.to Rugiada: -3°C
Umidità: 70%
Pressione: 1016 hPa
Copertura nuvolosa: Mostly Cloudy
Visibilità: oltre 10 km
Dettagli cop. nuvolosa: Molto nuvoloso 7000 ft
LIMF 130720Z VRB02KT 9999 BKN070 02/M03 Q1016
LIRA - Roma
Dati ricevuti: 13-12-2018 08:20
Molto nuvoloso  
Molto nuvoloso  
   Vento: Variabile 5.6 km/h
Vento: Variabile 5.6 km/h
Temperatura e Condizioni Meteo: 9°C
Temperatura Vento: 8°C
P.to Rugiada: 3°C
Umidità: 66%
Pressione: 1011 hPa
Copertura nuvolosa: Mostly Cloudy
Visibilità: oltre 10 km
Dettagli cop. nuvolosa: Parz. nuvoloso 2500 ft,
Molto nuvoloso 3500 ft
LIRA 130720Z VRB03KT 9999 SCT025 BKN035 09/03 Q1011
LICJ - Palermo
Dati ricevuti: 13-12-2018 07:50
Parz. nuvoloso  
Parz. nuvoloso  
   Vento: S 18.5 km/h
Vento: S 18.5 km/h
Temperatura e Condizioni Meteo: 14°C
P.to Rugiada: 11°C
Umidità: 82%
Pressione: 1014 hPa
Copertura nuvolosa: Partly Cloudy
Visibilità: oltre 10 km
Dettagli cop. nuvolosa: Poche nuvole 2500 ft,
Parz. nuvoloso 4000 ft
LICJ 130650Z 20010KT 9999 FEW025 SCT040 14/11 Q1014

Script sviluppato da  Saratoga-weather.org Adattato per il modello da  Weerstation Leuven

Potete trovare le nostre informazioni meteo anche su:

Meteonetwork

Linea Meteo

Weather Underground

AWEKAS

European Weather Network

PWS Weather

WeatherCloud

Citizen Weather Observer Program (CWOP)

Strumentazione in uso:

Meteo-stazione
Oregon Scientific WMR300

Meteo-programma
Weather Display

Meteo-server
Samsung N220

Oregon Scientific WMR300

Weather Display

Samsung N220


Banda Musicale Pozzolese


<